Time;durP1;ratioP1;P1;durP2;ratioP2;P2;SDS_P1;SDS_P2;PMS_P1;PMS_P2;Temp;Humidity;BMP_temperature;BMP_pressure;BME280_temperature;BME280_humidity;BME280_pressure;Samples;Min_cycle;Max_cycle;Signal;HPM_P1;HPM_P2
2023/04/20 00:02:04;;;;;;;41.30;7.20;;;;;;;10.71;100.00;100324.69;103225;1292;60347;-75
2023/04/20 00:04:29;;;;;;;47.90;7.90;;;;;;;10.72;100.00;100328.13;103328;1285;74457;-74
2023/04/20 00:06:58;;;;;;;38.70;7.60;;;;;;;10.73;100.00;100332.22;103549;1285;60444;-74
2023/04/20 00:09:26;;;;;;;42.60;7.50;;;;;;;10.74;100.00;100336.98;103410;1287;61585;-74
2023/04/20 00:11:51;;;;;;;41.80;7.70;;;;;;;10.75;100.00;100335.63;103383;1288;73046;-74
2023/04/20 00:14:18;;;;;;;39.00;7.70;;;;;;;10.78;100.00;100335.80;103385;1288;60403;-74
2023/04/20 00:16:44;;;;;;;42.00;7.20;;;;;;;10.82;100.00;100331.38;103621;1288;60865;-74
2023/04/20 00:19:10;;;;;;;46.70;7.70;;;;;;;10.84;100.00;100326.68;103549;1286;60408;-74
2023/04/20 00:24:57;;;;;;;39.80;7.70;;;;;;;10.89;100.00;100320.17;103555;1288;74415;-73
2023/04/20 00:27:23;;;;;;;34.10;7.80;;;;;;;10.89;100.00;100316.67;103610;1285;60373;-74
2023/04/20 00:29:48;;;;;;;46.00;8.60;;;;;;;10.90;100.00;100312.20;103516;1288;60395;-73
2023/04/20 00:35:52;;;;;;;53.70;8.40;;;;;;;11.00;100.00;100309.98;102779;1288;615727;-74
2023/04/20 00:38:18;;;;;;;42.40;8.50;;;;;;;11.03;100.00;100313.59;103287;1293;60336;-74
2023/04/20 00:44:01;;;;;;;48.10;8.60;;;;;;;11.09;100.00;100298.34;102926;1292;600660;-74
2023/04/20 00:46:27;;;;;;;43.60;9.40;;;;;;;11.09;100.00;100289.34;103088;1294;60419;-74
2023/04/20 00:48:53;;;;;;;43.40;8.60;;;;;;;11.10;100.00;100290.46;103030;1289;60348;-75
2023/04/20 00:51:22;;;;;;;55.80;9.10;;;;;;;11.11;100.00;100287.98;103104;1293;60406;-74
2023/04/20 00:53:47;;;;;;;44.40;9.80;;;;;;;11.13;100.00;100284.05;103276;1289;60371;-75
2023/04/20 00:56:15;;;;;;;44.10;10.20;;;;;;;11.14;100.00;100285.70;103287;1289;60457;-74
2023/04/20 00:58:45;;;;;;;42.10;9.30;;;;;;;11.16;100.00;100283.17;103313;1291;297108;-76
2023/04/20 01:01:11;;;;;;;55.70;11.10;;;;;;;11.18;100.00;100282.30;103161;1289;60566;-74
2023/04/20 01:03:38;;;;;;;45.10;10.20;;;;;;;11.18;100.00;100283.13;103451;1291;73597;-75
2023/04/20 01:06:05;;;;;;;52.60;11.00;;;;;;;11.21;100.00;100279.29;103168;1290;73865;-75
2023/04/20 01:08:30;;;;;;;50.40;11.50;;;;;;;11.22;100.00;100277.55;103076;1288;60337;-75
2023/04/20 01:10:56;;;;;;;57.50;11.30;;;;;;;11.23;100.00;100279.77;103071;1289;60475;-74
2023/04/20 01:13:22;;;;;;;54.70;12.10;;;;;;;11.24;100.00;100282.37;103110;1294;60489;-74
2023/04/20 01:15:48;;;;;;;41.30;10.90;;;;;;;11.24;100.00;100278.32;103111;1292;60263;-74
2023/04/20 01:18:14;;;;;;;51.30;10.90;;;;;;;11.25;100.00;100275.67;103113;1288;60568;-74
2023/04/20 01:20:40;;;;;;;52.50;11.40;;;;;;;11.25;100.00;100271.79;103424;1288;60363;-75
2023/04/20 01:23:05;;;;;;;54.50;11.20;;;;;;;11.24;100.00;100258.41;103114;1289;60566;-75
2023/04/20 01:25:31;;;;;;;45.20;10.60;;;;;;;11.25;100.00;100244.54;103289;1294;60533;-75
2023/04/20 01:27:57;;;;;;;54.60;12.00;;;;;;;11.26;100.00;100243.09;103264;1289;60629;-74
2023/04/20 01:30:22;;;;;;;57.90;12.20;;;;;;;11.25;100.00;100241.04;102916;1291;60410;-75
2023/04/20 01:32:48;;;;;;;54.40;11.30;;;;;;;11.25;100.00;100233.75;103108;1293;60561;-74
2023/04/20 01:35:14;;;;;;;48.70;12.50;;;;;;;11.25;100.00;100226.30;103060;1288;60869;-75
2023/04/20 01:37:41;;;;;;;57.50;12.30;;;;;;;11.25;100.00;100224.58;103321;1291;75761;-74
2023/04/20 01:40:11;;;;;;;61.50;13.00;;;;;;;11.27;100.00;100225.71;103293;1291;60396;-74
2023/04/20 01:42:37;;;;;;;58.10;11.60;;;;;;;11.27;100.00;100224.85;103286;1288;63070;-74
2023/04/20 01:45:05;;;;;;;55.40;11.90;;;;;;;11.28;100.00;100218.27;103349;1291;60380;-75
2023/04/20 01:47:31;;;;;;;53.10;12.00;;;;;;;11.31;100.00;100212.80;103202;1294;74410;-74
2023/04/20 01:49:57;;;;;;;61.70;13.90;;;;;;;11.33;100.00;100213.52;103380;1288;60389;-75
2023/04/20 01:52:22;;;;;;;66.70;17.20;;;;;;;11.31;100.00;100210.15;103445;1287;60390;-75
2023/04/20 01:54:48;;;;;;;75.20;16.60;;;;;;;11.29;100.00;100213.98;103552;1289;60351;-75
2023/04/20 01:57:13;;;;;;;77.40;19.00;;;;;;;11.29;100.00;100212.58;102994;1288;60798;-75
2023/04/20 01:59:39;;;;;;;66.50;18.30;;;;;;;11.28;100.00;100214.37;103171;1289;60287;-75
2023/04/20 02:02:04;;;;;;;68.00;19.00;;;;;;;11.25;100.00;100215.52;103324;1287;60399;-75
2023/04/20 02:04:30;;;;;;;61.50;18.00;;;;;;;11.27;100.00;100216.36;103265;1285;60326;-75
2023/04/20 02:06:56;;;;;;;66.90;19.90;;;;;;;11.30;100.00;100225.48;103470;1286;60379;-75
2023/04/20 02:09:21;;;;;;;73.60;20.30;;;;;;;11.32;100.00;100229.79;103510;1290;60446;-75
2023/04/20 02:15:09;;;;;;;64.20;19.10;;;;;;;11.32;100.00;100237.02;103412;1288;60641;-75
2023/04/20 02:20:58;;;;;;;83.70;17.80;;;;;;;11.31;100.00;100220.63;103371;1286;71750;-74
2023/04/20 02:23:24;;;;;;;71.50;17.70;;;;;;;11.36;100.00;100223.46;103422;1288;60415;-75
2023/04/20 02:25:49;;;;;;;57.90;17.80;;;;;;;11.42;100.00;100217.47;103267;1285;60287;-75
2023/04/20 02:28:15;;;;;;;71.90;19.10;;;;;;;11.43;100.00;100213.52;103510;1285;60382;-74
2023/04/20 02:30:40;;;;;;;75.40;18.10;;;;;;;11.45;100.00;100211.58;103318;1286;60375;-76
2023/04/20 02:33:06;;;;;;;52.20;17.80;;;;;;;11.48;100.00;100205.19;103452;1290;60402;-75
2023/04/20 02:35:32;;;;;;;79.90;19.00;;;;;;;11.50;100.00;100208.70;103474;1286;72977;-74
2023/04/20 02:41:17;;;;;;;64.70;17.60;;;;;;;11.56;100.00;100205.23;102827;1292;600057;-75
2023/04/20 02:43:43;;;;;;;63.20;18.00;;;;;;;11.55;100.00;100202.69;102944;1294;60389;-75
2023/04/20 02:46:08;;;;;;;73.50;18.10;;;;;;;11.55;100.00;100204.52;102555;1291;60466;-75
2023/04/20 02:48:34;;;;;;;83.30;19.50;;;;;;;11.54;100.00;100206.36;102935;1291;60618;-75
2023/04/20 02:51:00;;;;;;;66.60;19.30;;;;;;;11.54;100.00;100207.92;103146;1291;74002;-75
2023/04/20 02:53:28;;;;;;;71.10;19.50;;;;;;;11.53;100.00;100205.70;103070;1292;60339;-75
2023/04/20 02:55:54;;;;;;;65.20;18.90;;;;;;;11.56;100.00;100202.42;102976;1285;453629;-74
2023/04/20 02:58:19;;;;;;;85.50;22.80;;;;;;;11.60;100.00;100204.46;103356;1289;60428;-74
2023/04/20 03:00:45;;;;;;;67.00;20.10;;;;;;;11.64;100.00;100208.70;103326;1289;60421;-74
2023/04/20 03:03:10;;;;;;;81.30;21.00;;;;;;;11.65;100.00;100208.42;103291;1286;60409;-74
2023/04/20 03:05:36;;;;;;;71.40;19.50;;;;;;;11.64;100.00;100215.55;103329;1286;60441;-74
2023/04/20 03:08:03;;;;;;;66.70;18.70;;;;;;;11.64;100.00;100211.73;103198;1291;60367;-74
2023/04/20 03:10:29;;;;;;;77.80;18.10;;;;;;;11.64;100.00;100204.70;103207;1286;74809;-74
2023/04/20 03:12:55;;;;;;;56.70;17.10;;;;;;;11.64;100.00;100199.63;103190;1291;60382;-75
2023/04/20 03:15:21;;;;;;;64.80;17.60;;;;;;;11.65;100.00;100192.83;103268;1286;60382;-75
2023/04/20 03:17:47;;;;;;;58.90;16.10;;;;;;;11.67;100.00;100197.24;103402;1289;60425;-75
2023/04/20 03:20:13;;;;;;;64.40;17.00;;;;;;;11.66;100.00;100195.57;103272;1285;60262;-75
2023/04/20 03:22:39;;;;;;;73.10;16.50;;;;;;;11.66;100.00;100202.86;103194;1285;60323;-75
2023/04/20 03:25:05;;;;;;;71.50;17.40;;;;;;;11.63;100.00;100200.00;103044;1292;60486;-75
2023/04/20 03:27:30;;;;;;;70.40;17.50;;;;;;;11.56;100.00;100196.52;102994;1286;60286;-75
2023/04/20 03:29:56;;;;;;;73.60;17.90;;;;;;;11.58;100.00;100194.85;103363;1290;60341;-75
2023/04/20 03:32:25;;;;;;;69.40;18.00;;;;;;;11.55;100.00;100198.15;103079;1285;60386;-76
2023/04/20 03:35:08;;;;;;;71.20;18.60;;;;;;;11.63;100.00;100196.40;102808;1290;601094;-74
2023/04/20 03:37:35;;;;;;;80.20;21.00;;;;;;;11.60;100.00;100192.90;103257;1292;60456;-74
2023/04/20 03:40:01;;;;;;;71.80;19.00;;;;;;;11.62;100.00;100192.40;103153;1293;61496;-75
2023/04/20 03:42:26;;;;;;;77.40;20.00;;;;;;;11.61;100.00;100191.98;102649;1289;60422;-75
2023/04/20 03:44:52;;;;;;;81.60;17.90;;;;;;;11.58;100.00;100188.48;103082;1292;60395;-75
2023/04/20 03:47:17;;;;;;;66.30;17.20;;;;;;;11.60;100.00;100190.26;103103;1293;60342;-75
2023/04/20 03:49:43;;;;;;;64.50;15.80;;;;;;;11.63;100.00;100198.93;103223;1289;442839;-75
2023/04/20 03:52:08;;;;;;;61.90;16.30;;;;;;;11.70;100.00;100198.09;103086;1286;60406;-74
2023/04/20 03:54:34;;;;;;;63.70;15.70;;;;;;;11.76;100.00;100204.33;103497;1286;60350;-74
2023/04/20 03:57:01;;;;;;;62.20;15.70;;;;;;;11.79;100.00;100200.70;103659;1286;60248;-75
2023/04/20 03:59:27;;;;;;;67.20;15.70;;;;;;;11.83;100.00;100197.55;103453;1284;60478;-74
2023/04/20 04:01:53;;;;;;;65.90;14.70;;;;;;;11.85;100.00;100193.06;103152;1286;62130;-75
2023/04/20 04:04:18;;;;;;;70.80;14.50;;;;;;;11.95;100.00;100191.31;103463;1288;60399;-74
2023/04/20 04:06:44;;;;;;;58.50;13.90;;;;;;;12.00;100.00;100191.81;103481;1285;60418;-75
2023/04/20 04:09:09;;;;;;;74.40;14.00;;;;;;;12.01;100.00;100189.70;103425;1289;60401;-75
2023/04/20 04:11:35;;;;;;;53.70;13.00;;;;;;;12.00;100.00;100192.77;103489;1289;60401;-75
2023/04/20 04:14:03;;;;;;;60.20;14.60;;;;;;;12.00;100.00;100192.45;103239;1289;60386;-75
2023/04/20 04:16:30;;;;;;;63.00;12.00;;;;;;;12.01;100.00;100188.52;103494;1286;60301;-75
2023/04/20 04:18:55;;;;;;;61.20;12.60;;;;;;;12.00;100.00;100187.61;103548;1286;60410;-75
2023/04/20 04:21:21;;;;;;;73.00;12.20;;;;;;;12.02;100.00;100186.79;103454;1286;60397;-75
2023/04/20 04:23:48;;;;;;;64.60;10.70;;;;;;;12.06;100.00;100191.13;103471;1289;60400;-75
2023/04/20 04:26:14;;;;;;;49.20;11.30;;;;;;;12.06;100.00;100189.67;103480;1286;60402;-75
2023/04/20 04:28:40;;;;;;;82.50;10.70;;;;;;;12.05;100.00;100193.13;103522;1289;60289;-75
2023/04/20 04:31:07;;;;;;;52.90;10.10;;;;;;;12.08;100.00;100192.58;103760;1289;60389;-75
2023/04/20 04:33:33;;;;;;;51.10;9.60;;;;;;;12.10;100.00;100193.27;103499;1289;60220;-75
2023/04/20 04:36:00;;;;;;;50.20;10.80;;;;;;;12.12;100.00;100193.15;102971;1286;60318;-75
2023/04/20 04:38:26;;;;;;;80.70;9.90;;;;;;;12.15;100.00;100193.98;103412;1292;60408;-75
2023/04/20 04:40:52;;;;;;;44.90;9.70;;;;;;;12.14;100.00;100191.14;103489;1286;60398;-74
2023/04/20 04:46:40;;;;;;;44.30;9.30;;;;;;;12.11;100.00;100197.42;103486;1286;60667;-75
2023/04/20 04:49:06;;;;;;;51.70;9.60;;;;;;;12.11;100.00;100202.02;103480;1287;60358;-73
2023/04/20 04:51:32;;;;;;;54.50;9.50;;;;;;;12.12;100.00;100196.49;103508;1286;60349;-74
2023/04/20 04:53:58;;;;;;;56.90;9.30;;;;;;;12.10;100.00;100196.02;103605;1284;60769;-74
2023/04/20 04:56:24;;;;;;;44.80;8.90;;;;;;;12.10;100.00;100196.89;103478;1287;60461;-74
2023/04/20 04:58:49;;;;;;;61.90;9.30;;;;;;;12.10;100.00;100200.57;103469;1289;60671;-73
2023/04/20 05:01:15;;;;;;;49.00;8.30;;;;;;;12.08;100.00;100198.04;103422;1285;73368;-74
2023/04/20 05:03:40;;;;;;;50.70;8.90;;;;;;;12.09;100.00;100201.42;103451;1286;60389;-74
2023/04/20 05:06:06;;;;;;;43.50;9.00;;;;;;;12.08;100.00;100200.94;103055;1291;60417;-74
2023/04/20 05:08:33;;;;;;;64.40;9.70;;;;;;;12.03;100.00;100199.14;103698;1289;60392;-75
2023/04/20 05:10:58;;;;;;;48.40;8.70;;;;;;;12.02;100.00;100201.10;103560;1286;60821;-75
2023/04/20 05:13:24;;;;;;;54.80;9.20;;;;;;;12.06;100.00;100201.13;103472;1286;60319;-75
2023/04/20 05:15:49;;;;;;;57.90;8.70;;;;;;;12.05;100.00;100205.41;103303;1289;73978;-75
2023/04/20 05:18:15;;;;;;;47.70;8.70;;;;;;;12.04;100.00;100200.81;103468;1286;60430;-76
2023/04/20 05:20:41;;;;;;;71.60;9.60;;;;;;;11.97;100.00;100206.64;103320;1294;60604;-76
2023/04/20 05:23:07;;;;;;;52.90;9.40;;;;;;;11.96;100.00;100210.85;103488;1286;60398;-77
2023/04/20 05:25:33;;;;;;;58.20;8.80;;;;;;;11.99;100.00;100211.52;106863;1284;58115;-76
2023/04/20 05:27:59;;;;;;;55.40;8.70;;;;;;;11.96;100.00;100211.98;106959;1285;58075;-76
2023/04/20 05:30:24;;;;;;;47.10;8.60;;;;;;;11.99;100.00;100210.61;106848;1285;60885;-76
2023/04/20 05:32:50;;;;;;;59.40;9.00;;;;;;;11.98;100.00;100214.52;106911;1284;58129;-77
2023/04/20 05:35:16;;;;;;;60.60;9.70;;;;;;;11.99;100.00;100214.17;106359;1286;58587;-77
2023/04/20 05:37:41;;;;;;;45.90;8.00;;;;;;;12.00;100.00;100210.82;106326;1284;58296;-77
2023/04/20 05:40:08;;;;;;;40.10;8.10;;;;;;;12.04;100.00;100206.76;106919;1285;58290;-77
2023/04/20 05:42:33;;;;;;;57.60;8.70;;;;;;;12.06;100.00;100208.36;106897;1285;58214;-77
2023/04/20 05:44:59;;;;;;;54.80;8.10;;;;;;;12.07;100.00;100209.23;106922;1285;58122;-77
2023/04/20 05:47:26;;;;;;;52.50;8.50;;;;;;;12.09;100.00;100207.59;106929;1285;71921;-77
2023/04/20 05:49:52;;;;;;;48.30;9.40;;;;;;;12.11;100.00;100209.20;106468;1288;60746;-78
2023/04/20 05:52:18;;;;;;;62.70;9.70;;;;;;;12.09;100.00;100210.25;106890;1284;58067;-77
2023/04/20 05:54:43;;;;;;;55.70;9.20;;;;;;;12.13;100.00;100205.95;106883;1285;58176;-79
2023/04/20 05:57:09;;;;;;;54.40;9.10;;;;;;;12.17;100.00;100214.35;106865;1285;58154;-76
2023/04/20 05:59:35;;;;;;;47.40;9.10;;;;;;;12.16;100.00;100213.81;106503;1285;58155;-76
2023/04/20 06:02:00;;;;;;;47.70;9.10;;;;;;;12.09;100.00;100221.36;106602;1284;58472;-75
2023/04/20 06:04:26;;;;;;;54.80;9.80;;;;;;;12.06;100.00;100225.39;106880;1285;73945;-75
2023/04/20 06:06:52;;;;;;;61.10;9.50;;;;;;;12.01;100.00;100229.63;106888;1285;58166;-75
2023/04/20 06:09:18;;;;;;;52.70;10.00;;;;;;;11.97;100.00;100224.98;106519;1286;58178;-75
2023/04/20 06:11:43;;;;;;;48.90;8.50;;;;;;;11.97;100.00;100227.69;106848;1285;58055;-76
2023/04/20 06:14:10;;;;;;;68.40;9.60;;;;;;;11.88;100.00;100229.85;106877;1285;58146;-77
2023/04/20 06:16:36;;;;;;;57.30;9.90;;;;;;;11.84;100.00;100230.17;106531;1286;58242;-77
2023/04/20 06:19:02;;;;;;;64.40;9.80;;;;;;;11.82;100.00;100229.45;106911;1285;58906;-79
2023/04/20 06:21:28;;;;;;;53.00;10.50;;;;;;;11.81;100.00;100223.48;106947;1285;58129;-79
2023/04/20 06:23:54;;;;;;;52.70;10.70;;;;;;;11.82;100.00;100225.78;106722;1286;60091;-79
2023/04/20 06:26:20;;;;;;;55.10;10.30;;;;;;;11.85;100.00;100224.17;106893;1285;58039;-79
2023/04/20 06:28:47;;;;;;;64.40;11.50;;;;;;;11.79;100.00;100225.38;106926;1284;58252;-80
2023/04/20 06:31:12;;;;;;;54.80;10.80;;;;;;;11.82;100.00;100225.59;106871;1285;58135;-79
2023/04/20 06:33:38;;;;;;;61.10;12.10;;;;;;;11.88;100.00;100224.05;106874;1285;58201;-80
2023/04/20 06:36:07;;;;;;;51.40;10.40;;;;;;;11.81;100.00;100228.19;106891;1285;58148;-80
2023/04/20 06:38:32;;;;;;;57.90;11.10;;;;;;;11.73;100.00;100230.16;106868;1285;57930;-80
2023/04/20 06:42:44;;;;;;;68.60;12.30;;;;;;;11.61;100.00;100237.30;103686;1282;615883;-82
2023/04/20 06:45:13;;;;;;;65.80;11.50;;;;;;;11.88;100.00;100231.40;103534;1290;60576;-81
2023/04/20 06:47:45;;;;;;;61.90;11.00;;;;;;;11.86;100.00;100229.89;103689;1282;61910;-83
2023/04/20 06:50:10;;;;;;;62.90;11.40;;;;;;;11.75;100.00;100225.98;103994;1286;71016;-84
2023/04/20 06:52:37;;;;;;;51.20;11.30;;;;;;;11.72;100.00;100231.55;103948;1282;60368;-83
2023/04/20 06:55:03;;;;;;;56.60;9.80;;;;;;;11.69;100.00;100226.13;103453;1281;380266;-83
2023/04/20 06:57:29;;;;;;;46.20;10.70;;;;;;;11.64;100.00;100225.27;104227;1282;60435;-82
2023/04/20 06:59:55;;;;;;;53.90;9.90;;;;;;;11.51;100.00;100228.44;103740;1283;60344;-82
2023/04/20 09:54:21;;;;;;;25.60;8.40;;;;;;;12.16;100.00;100253.27;103311;1289;614531;-85
2023/04/20 09:56:48;;;;;;;24.60;8.20;;;;;;;12.74;100.00;100240.48;103291;1293;60480;-85
2023/04/20 10:02:52;;;;;;;34.50;7.20;;;;;;;12.63;100.00;100231.59;103015;1292;613883;-84
2023/04/20 10:05:17;;;;;;;16.50;6.90;;;;;;;12.50;100.00;100221.20;103017;1295;60399;-83
2023/04/20 10:07:43;;;;;;;26.70;6.80;;;;;;;12.52;100.00;100218.86;103252;1293;60403;-84
2023/04/20 10:10:13;;;;;;;19.30;6.40;;;;;;;12.83;100.00;100218.67;102779;1300;60436;-84
2023/04/20 10:12:52;;;;;;;16.90;7.00;;;;;;;12.52;100.00;100218.36;103142;1296;73886;-84
2023/04/20 10:18:36;;;;;;;19.80;7.80;;;;;;;12.15;100.00;100226.79;103172;1292;600106;-85
2023/04/20 10:21:09;;;;;;;18.60;6.40;;;;;;;12.04;100.00;100236.84;103538;1287;60398;-84
2023/04/20 10:23:45;;;;;;;;;;;;;;;12.11;100.00;100226.16;103422;1286;60562;-83
2023/04/20 10:26:11;;;;;;;10.10;3.80;;;;;;;12.08;100.00;100219.15;103297;1286;73285;-84
2023/04/20 10:28:43;;;;;;;14.30;3.50;;;;;;;11.90;100.00;100218.92;103063;1295;60407;-83
2023/04/20 10:31:12;;;;;;;13.30;3.10;;;;;;;12.01;100.00;100221.63;102978;1289;363243;-84
2023/04/20 10:33:51;;;;;;;13.50;3.00;;;;;;;12.13;100.00;100217.56;103285;1292;61487;-86
2023/04/20 10:39:39;;;;;;;17.30;3.20;;;;;;;12.00;100.00;100230.86;102983;1290;600424;-84
2023/04/20 10:42:05;;;;;;;20.10;3.70;;;;;;;12.02;100.00;100234.91;103076;1298;60515;-85
2023/04/20 10:44:31;;;;;;;12.90;3.20;;;;;;;12.10;100.00;100240.27;103265;1289;60441;-85
2023/04/20 10:46:57;;;;;;;11.60;3.10;;;;;;;12.07;100.00;100241.03;103339;1292;60427;-86
2023/04/20 10:49:31;;;;;;;12.80;3.60;;;;;;;12.14;100.00;100241.43;103063;1294;60806;-86
2023/04/20 10:51:57;;;;;;;10.30;3.70;;;;;;;12.12;100.00;100243.27;103289;1292;74353;-84
2023/04/20 10:54:23;;;;;;;13.30;3.50;;;;;;;11.98;100.00;100245.13;103255;1291;397370;-84
2023/04/20 10:56:51;;;;;;;9.10;3.50;;;;;;;11.95;100.00;100250.23;103634;1291;59400;-84
2023/04/20 11:02:56;;;;;;;10.00;4.10;;;;;;;11.90;100.00;100258.08;102919;1294;614335;-85
2023/04/20 11:05:24;;;;;;;11.50;4.40;;;;;;;11.82;100.00;100263.27;106582;1288;58074;-88
2023/04/20 11:07:58;;;;;;;14.50;3.90;;;;;;;11.75;100.00;100268.80;106574;1287;60955;-86
2023/04/20 11:10:37;;;;;;;9.50;3.80;;;;;;;11.53;100.00;100264.82;106493;1289;72004;-86
2023/04/20 11:13:02;;;;;;;11.30;4.20;;;;;;;11.70;100.00;100263.53;106530;1288;73369;-86
2023/04/20 11:15:34;;;;;;;14.00;4.40;;;;;;;11.68;100.00;100264.34;106296;1286;360985;-86
2023/04/20 11:18:07;;;;;;;11.30;3.90;;;;;;;11.92;100.00;100265.73;106837;1286;61175;-86
2023/04/20 11:20:33;;;;;;;11.80;3.90;;;;;;;11.90;100.00;100264.55;106856;1285;61153;-85
2023/04/20 11:22:58;;;;;;;11.10;4.40;;;;;;;11.84;100.00;100264.35;106939;1285;58097;-85
2023/04/20 11:25:24;;;;;;;13.20;4.30;;;;;;;11.97;100.00;100262.48;106938;1285;58199;-86
2023/04/20 11:27:50;;;;;;;14.90;5.20;;;;;;;12.10;100.00;100259.88;106888;1286;58120;-85
2023/04/20 11:30:15;;;;;;;11.20;3.20;;;;;;;12.17;100.00;100259.08;106754;1285;58260;-85
2023/04/20 11:32:41;;;;;;;10.20;3.20;;;;;;;12.22;100.00;100257.55;106926;1284;57916;-86
2023/04/20 11:35:09;;;;;;;11.90;3.10;;;;;;;12.38;100.00;100254.10;106917;1285;58164;-85
2023/04/20 11:37:49;;;;;;;8.80;3.30;;;;;;;12.27;100.00;100257.69;106840;1286;73431;-85
2023/04/20 11:40:16;;;;;;;6.80;3.20;;;;;;;12.13;100.00;100256.56;106861;1285;62461;-85
2023/04/20 11:42:42;;;;;;;14.70;3.60;;;;;;;12.16;100.00;100256.71;106944;1285;58204;-85
2023/04/20 11:45:10;;;;;;;6.30;3.40;;;;;;;12.16;100.00;100253.86;106860;1285;58046;-85
2023/04/20 11:47:36;;;;;;;8.20;3.60;;;;;;;12.08;100.00;100252.52;106754;1285;74389;-85
2023/04/20 11:50:02;;;;;;;11.30;3.90;;;;;;;12.08;100.00;100250.06;106947;1285;58149;-84
2023/04/20 11:52:27;;;;;;;7.70;4.50;;;;;;;11.99;100.00;100243.30;106881;1285;58138;-84
2023/04/20 11:54:53;;;;;;;10.50;4.60;;;;;;;11.97;100.00;100240.27;106688;1284;58170;-84
2023/04/20 11:57:20;;;;;;;7.70;3.60;;;;;;;11.95;100.00;100234.35;106979;1285;58277;-84
2023/04/20 11:59:47;;;;;;;16.30;4.10;;;;;;;12.02;100.00;100230.42;106890;1285;58397;-84
2023/04/20 12:02:14;;;;;;;8.10;4.00;;;;;;;12.08;100.00;100230.23;106916;1285;58099;-91
2023/04/20 12:04:40;;;;;;;11.00;4.10;;;;;;;12.19;100.00;100221.95;106849;1289;58174;-91
2023/04/20 12:07:05;;;;;;;9.30;4.50;;;;;;;12.11;100.00;100221.36;107024;1284;58248;-92
2023/04/20 12:09:36;;;;;;;8.10;3.90;;;;;;;12.06;100.00;100224.45;106644;1287;58201;-92
2023/04/20 12:12:02;;;;;;;6.90;3.80;;;;;;;12.07;100.00;100217.15;106490;1287;74437;-84
2023/04/20 12:14:28;;;;;;;8.60;4.70;;;;;;;12.10;100.00;100210.02;106456;1288;72684;-83
2023/04/20 12:16:53;;;;;;;6.50;4.10;;;;;;;12.20;100.00;100209.09;106674;1289;58233;-83
2023/04/20 12:19:19;;;;;;;8.70;4.10;;;;;;;12.10;100.00;100202.61;106662;1288;58099;-82
2023/04/20 12:21:46;;;;;;;5.30;3.60;;;;;;;12.15;100.00;100194.16;106636;1288;58302;-81
2023/04/20 12:24:12;;;;;;;8.40;3.40;;;;;;;12.25;100.00;100183.55;106608;1287;58296;-83
2023/04/20 12:26:38;;;;;;;9.70;3.70;;;;;;;12.47;100.00;100182.36;106570;1287;58318;-81
2023/04/20 12:29:03;;;;;;;4.30;3.00;;;;;;;12.75;100.00;100182.61;106326;1289;58196;-82
2023/04/20 12:31:29;;;;;;;10.50;3.80;;;;;;;12.74;100.00;100180.84;106619;1288;72701;-81
2023/04/20 12:33:55;;;;;;;7.10;3.60;;;;;;;12.90;100.00;100175.77;106540;1288;58713;-81
2023/04/20 12:36:21;;;;;;;7.50;3.50;;;;;;;12.96;100.00;100168.73;106589;1289;58506;-80
2023/04/20 12:38:46;;;;;;;4.20;2.90;;;;;;;13.03;100.00;100164.17;106604;1288;58126;-80
2023/04/20 12:41:15;;;;;;;7.30;3.00;;;;;;;13.18;100.00;100160.54;106837;1285;58280;-81
2023/04/20 12:43:41;;;;;;;6.20;3.60;;;;;;;13.04;100.00;100163.61;106914;1284;58453;-80
2023/04/20 12:46:06;;;;;;;8.30;3.50;;;;;;;13.12;100.00;100165.85;106931;1284;58431;-81
2023/04/20 12:48:32;;;;;;;6.70;3.20;;;;;;;13.09;100.00;100166.27;106840;1284;58163;-81
2023/04/20 12:50:57;;;;;;;5.30;3.00;;;;;;;13.12;100.00;100165.42;106973;1285;58730;-80
2023/04/20 12:53:23;;;;;;;5.50;3.40;;;;;;;13.10;100.00;100162.36;106934;1285;72811;-80
2023/04/20 12:55:48;;;;;;;6.70;3.10;;;;;;;13.11;100.00;100162.52;106864;1284;58610;-80
2023/04/20 12:58:15;;;;;;;5.70;3.40;;;;;;;13.21;100.00;100162.45;106835;1284;58535;-80
2023/04/20 13:00:42;;;;;;;8.30;3.60;;;;;;;13.11;100.00;100159.59;106817;1285;58209;-80
2023/04/20 13:03:08;;;;;;;6.10;3.20;;;;;;;13.16;100.00;100157.90;106893;1284;58042;-80
2023/04/20 13:05:33;;;;;;;6.10;3.50;;;;;;;13.30;100.00;100156.27;106882;1284;58014;-80
2023/04/20 13:07:59;;;;;;;8.90;4.40;;;;;;;13.39;100.00;100163.42;106703;1286;58309;-80
2023/04/20 13:10:25;;;;;;;11.60;4.70;;;;;;;13.42;100.00;100159.23;106844;1285;58214;-80
2023/04/20 13:12:51;;;;;;;10.50;5.00;;;;;;;13.29;100.00;100162.89;106790;1285;60011;-80
2023/04/20 13:15:18;;;;;;;13.90;4.10;;;;;;;13.23;100.00;100160.39;106856;1285;58196;-80
2023/04/20 13:17:44;;;;;;;6.50;4.10;;;;;;;13.23;100.00;100154.23;106444;1284;73304;-80
2023/04/20 13:20:10;;;;;;;26.70;5.70;;;;;;;13.22;100.00;100153.91;106836;1284;58359;-80
2023/04/20 13:22:38;;;;;;;11.80;4.50;;;;;;;13.27;100.00;100152.02;106605;1285;58172;-81
2023/04/20 13:25:05;;;;;;;8.50;4.30;;;;;;;13.24;100.00;100152.48;106870;1284;58105;-80
2023/04/20 13:27:31;;;;;;;9.00;4.40;;;;;;;13.06;100.00;100153.16;106899;1285;73549;-79
2023/04/20 13:29:58;;;;;;;7.70;4.60;;;;;;;13.03;100.00;100155.40;106932;1284;58047;-79
2023/04/20 13:32:25;;;;;;;5.90;3.90;;;;;;;13.02;100.00;100157.30;106881;1284;72392;-77
2023/04/20 13:34:51;;;;;;;7.70;4.80;;;;;;;12.93;100.00;100157.88;106535;1284;62386;-76
2023/04/20 13:37:17;;;;;;;9.90;4.70;;;;;;;12.96;100.00;100154.39;106878;1284;58221;-77
2023/04/20 13:39:42;;;;;;;11.00;5.40;;;;;;;12.94;100.00;100155.28;106912;1284;58182;-77
2023/04/20 13:42:08;;;;;;;14.00;6.20;;;;;;;12.89;100.00;100159.77;106680;1285;58358;-77
2023/04/20 13:44:34;;;;;;;14.10;6.40;;;;;;;12.88;100.00;100156.59;106888;1284;58201;-78
2023/04/20 13:47:00;;;;;;;21.60;6.90;;;;;;;12.92;100.00;100160.86;106888;1284;58251;-77
2023/04/20 13:49:26;;;;;;;8.20;4.80;;;;;;;12.86;100.00;100154.13;106858;1284;58132;-77
2023/04/20 13:51:51;;;;;;;8.70;5.00;;;;;;;12.77;100.00;100149.92;106891;1284;73684;-76
2023/04/20 13:54:17;;;;;;;7.90;4.60;;;;;;;12.76;100.00;100152.81;106923;1284;58250;-78
2023/04/20 13:56:42;;;;;;;6.70;4.50;;;;;;;12.82;100.00;100152.92;106888;1284;58222;-78
2023/04/20 13:59:08;;;;;;;11.00;4.40;;;;;;;12.75;100.00;100153.20;106903;1284;58335;-77
2023/04/20 14:01:34;;;;;;;8.80;5.10;;;;;;;12.62;100.00;100152.12;106946;1284;58470;-76
2023/04/20 14:03:59;;;;;;;6.60;4.40;;;;;;;12.65;100.00;100153.40;106845;1284;73289;-77
2023/04/20 14:06:26;;;;;;;8.60;4.90;;;;;;;12.74;100.00;100155.65;106911;1284;58735;-78
2023/04/20 14:08:52;;;;;;;11.80;5.10;;;;;;;12.67;100.00;100157.54;106958;1284;58097;-77
2023/04/20 14:11:17;;;;;;;10.80;5.10;;;;;;;12.62;100.00;100160.30;106865;1284;58129;-77
2023/04/20 14:13:43;;;;;;;15.00;6.10;;;;;;;12.64;100.00;100163.84;106906;1284;58360;-78
2023/04/20 14:16:12;;;;;;;12.10;6.70;;;;;;;12.70;100.00;100165.46;106956;1285;58226;-77
2023/04/20 14:18:38;;;;;;;13.80;6.60;;;;;;;12.74;100.00;100164.77;106894;1284;58180;-77
2023/04/20 14:21:03;;;;;;;9.80;5.30;;;;;;;12.79;100.00;100162.57;106737;1284;58308;-78
2023/04/20 14:23:29;;;;;;;9.50;5.50;;;;;;;12.73;100.00;100162.09;106922;1284;58197;-76
2023/04/20 14:25:55;;;;;;;14.50;5.30;;;;;;;12.71;100.00;100158.04;106891;1284;58395;-77
2023/04/20 14:28:21;;;;;;;8.00;4.80;;;;;;;12.60;100.00;100160.25;106888;1284;58318;-77